Time;durP1;ratioP1;P1;durP2;ratioP2;P2;SDS_P1;SDS_P2;PMS_P1;PMS_P2;Temp;Humidity;BMP_temperature;BMP_pressure;BME280_temperature;BME280_humidity;BME280_pressure;Samples;Min_cycle;Max_cycle;Signal;HPM_P1;HPM_P2
2023/01/30 00:01:04;;;;;;;20.42;14.20;;;-3.70;99.90;;;;;;4962478;28;20047;-81
2023/01/30 00:03:33;;;;;;;25.42;16.27;;;-3.80;99.90;;;;;;4964971;28;20050;-81
2023/01/30 00:06:00;;;;;;;26.05;16.05;;;-3.70;99.90;;;;;;4954124;28;20051;-81
2023/01/30 00:08:28;;;;;;;28.27;16.48;;;-3.70;99.90;;;;;;4969632;28;20072;-81
2023/01/30 00:10:56;;;;;;;25.27;15.23;;;-3.70;99.90;;;;;;4954237;28;20047;-81
2023/01/30 00:13:23;;;;;;;28.15;14.60;;;-3.60;99.90;;;;;;4970536;28;20041;-81
2023/01/30 00:15:50;;;;;;;20.83;14.63;;;-3.60;99.90;;;;;;4954654;28;20047;-81
2023/01/30 00:18:18;;;;;;;26.40;14.90;;;-3.60;99.90;;;;;;4951365;28;20061;-81
2023/01/30 00:20:46;;;;;;;23.55;15.50;;;-3.70;99.90;;;;;;4966778;28;20050;-81
2023/01/30 00:23:20;;;;;;;26.67;16.33;;;-3.60;99.90;;;;;;4953387;28;20051;-81
2023/01/30 00:25:48;;;;;;;26.92;16.23;;;-3.60;99.90;;;;;;4969716;28;20047;-81
2023/01/30 00:28:16;;;;;;;25.58;13.27;;;-3.60;99.90;;;;;;4968261;28;20042;-81
2023/01/30 00:30:43;;;;;;;23.77;15.68;;;-3.60;99.90;;;;;;4968535;28;20039;-81
2023/01/30 00:33:11;;;;;;;25.35;16.35;;;-3.60;99.90;;;;;;4946874;28;20050;-81
2023/01/30 00:35:43;;;;;;;25.20;16.05;;;-3.70;99.90;;;;;;4970500;28;20773;-81
2023/01/30 00:38:13;;;;;;;34.38;15.93;;;-3.60;99.90;;;;;;4942122;28;20058;-81
2023/01/30 00:40:42;;;;;;;29.08;17.10;;;-3.50;99.90;;;;;;4949951;28;20058;-81
2023/01/30 00:48:51;;;;;;;21.30;15.18;;;-3.40;99.90;;;;;;4969392;28;20050;-81
2023/01/30 00:51:18;;;;;;;22.07;13.13;;;-3.40;99.90;;;;;;4953741;28;20089;-81
2023/01/30 00:53:47;;;;;;;19.80;14.38;;;-3.50;99.90;;;;;;4945775;28;20047;-81
2023/01/30 00:56:14;;;;;;;22.50;14.40;;;-3.50;99.90;;;;;;4962823;28;20054;-81
2023/01/30 00:58:42;;;;;;;28.08;14.80;;;-3.50;99.90;;;;;;4963743;28;20062;-81
2023/01/30 01:01:14;;;;;;;29.98;14.98;;;-3.50;99.90;;;;;;4962731;28;20062;-81
2023/01/30 01:03:41;;;;;;;27.88;15.90;;;-3.40;99.90;;;;;;4967186;28;20051;-81
2023/01/30 01:06:08;;;;;;;30.27;16.13;;;-3.30;99.90;;;;;;4966649;28;20047;-81
2023/01/30 01:08:36;;;;;;;22.10;13.18;;;-3.40;99.90;;;;;;4969381;28;20043;-80
2023/01/30 01:11:04;;;;;;;27.70;17.92;;;-3.30;99.90;;;;;;4951900;28;20078;-81
2023/01/30 01:13:33;;;;;;;26.45;15.57;;;-3.30;99.90;;;;;;4963025;28;20058;-81
2023/01/30 01:16:01;;;;;;;26.70;14.95;;;-3.40;99.90;;;;;;4970169;28;20058;-81
2023/01/30 01:18:29;;;;;;;26.90;16.05;;;-3.40;99.90;;;;;;4970363;28;20054;-81
2023/01/30 01:20:56;;;;;;;16.63;12.00;;;-3.50;99.90;;;;;;4941036;28;20054;-81
2023/01/30 01:23:26;;;;;;;17.85;11.10;;;-3.50;99.90;;;;;;4974549;28;20051;-80
2023/01/30 01:25:55;;;;;;;26.23;15.13;;;-3.50;99.90;;;;;;4974760;28;20043;-81
2023/01/30 01:28:23;;;;;;;24.45;15.15;;;-3.40;99.90;;;;;;4975145;28;20043;-81
2023/01/30 01:30:50;;;;;;;21.92;16.60;;;-3.50;99.90;;;;;;4975016;28;20127;-81
2023/01/30 01:33:18;;;;;;;23.00;15.05;;;-3.50;99.90;;;;;;4978087;28;20046;-81
2023/01/30 01:35:48;;;;;;;22.98;14.25;;;-3.70;99.90;;;;;;4977206;28;20061;-81
2023/01/30 01:38:16;;;;;;;22.75;14.52;;;-3.80;99.90;;;;;;4976428;28;20043;-81
2023/01/30 01:43:34;;;;;;;22.75;14.57;;;-3.90;99.90;;;;;;4974489;28;20058;-81
2023/01/30 01:46:08;;;;;;;20.90;14.73;;;-3.90;99.90;;;;;;4974983;28;20042;-80
2023/01/30 01:48:50;;;;;;;31.23;15.85;;;-3.90;99.90;;;;;;4973704;28;20043;-80
2023/01/30 01:51:39;;;;;;;25.73;14.73;;;-3.90;99.90;;;;;;4974935;28;20045;-80
2023/01/30 01:54:21;;;;;;;18.05;12.88;;;-4.00;99.90;;;;;;4973617;28;20388;-81
2023/01/30 01:56:49;;;;;;;18.27;11.95;;;-4.00;99.90;;;;;;4974172;28;20415;-81
2023/01/30 01:59:31;;;;;;;18.88;11.15;;;-4.00;99.90;;;;;;4974646;28;20074;-81
2023/01/30 02:02:04;;;;;;;24.90;13.23;;;-4.10;99.90;;;;;;4955752;28;20047;-81
2023/01/30 02:07:20;;;;;;;16.27;10.50;;;-4.10;99.90;;;;;;4981091;28;20059;-81
2023/01/30 02:09:50;;;;;;;26.48;13.95;;;-4.20;99.90;;;;;;4978832;28;20234;-81
2023/01/30 02:12:21;;;;;;;;;;;-4.20;99.90;;;;;;4988560;28;20031;-81
2023/01/30 02:14:49;;;;;;;22.52;12.00;;;-4.30;99.90;;;;;;4975920;28;19910;-81
2023/01/30 02:17:19;;;;;;;27.63;13.77;;;-4.40;99.90;;;;;;4962331;28;20043;-81
2023/01/30 02:20:02;;;;;;;26.38;13.93;;;-4.50;99.90;;;;;;4978507;28;20345;-81
2023/01/30 02:23:09;;;;;;;19.23;11.07;;;-4.50;99.90;;;;;;4952642;28;20035;-81
2023/01/30 02:25:50;;;;;;;18.33;10.52;;;-4.60;99.90;;;;;;4942310;28;20047;-81
2023/01/30 02:28:55;;;;;;;23.52;12.43;;;-4.80;99.90;;;;;;4969318;28;20057;-81
2023/01/30 02:31:35;;;;;;;21.58;13.15;;;-4.70;99.90;;;;;;4991433;28;20047;-81
2023/01/30 02:34:34;;;;;;;24.55;15.52;;;-4.50;99.90;;;;;;4977754;28;20049;-81
2023/01/30 02:37:30;;;;;;;21.17;14.13;;;-4.40;99.90;;;;;;4969231;28;20377;-81
2023/01/30 02:40:31;;;;;;;26.88;15.95;;;-4.30;99.90;;;;;;4971314;28;20053;-81
2023/01/30 02:43:19;;;;;;;24.77;15.23;;;-4.30;99.90;;;;;;4972939;28;20046;-80
2023/01/30 02:45:54;;;;;;;27.67;17.67;;;-4.20;99.90;;;;;;4959330;28;20043;-81
2023/01/30 02:48:25;;;;;;;22.02;15.23;;;-4.00;99.90;;;;;;4995004;28;20051;-80
2023/01/30 02:51:02;;;;;;;22.98;13.13;;;-4.10;99.90;;;;;;4995388;28;20038;-81
2023/01/30 02:53:34;;;;;;;27.00;14.00;;;-4.10;99.90;;;;;;4994234;28;20046;-81
2023/01/30 02:56:05;;;;;;;20.52;13.68;;;-4.20;99.90;;;;;;4962857;28;20381;-81
2023/01/30 02:58:40;;;;;;;27.75;16.33;;;-4.20;99.90;;;;;;4969031;28;20055;-81
2023/01/30 03:01:29;;;;;;;25.38;15.85;;;-4.20;99.90;;;;;;4934787;28;20051;-81
2023/01/30 03:04:25;;;;;;;22.17;12.27;;;-4.30;99.90;;;;;;4967976;28;20047;-80
2023/01/30 03:07:19;;;;;;;23.33;14.55;;;-4.30;99.90;;;;;;4929842;28;20059;-81
2023/01/30 03:10:24;;;;;;;23.25;15.38;;;-4.30;99.90;;;;;;4943931;29;20043;-80
2023/01/30 03:13:15;;;;;;;29.33;16.13;;;-4.30;99.90;;;;;;4951913;28;20055;-81
2023/01/30 03:16:22;;;;;;;20.55;12.90;;;-4.30;99.90;;;;;;4955724;28;20074;-81
2023/01/30 03:18:50;;;;;;;23.35;14.15;;;-4.40;99.90;;;;;;4935874;28;20415;-81
2023/01/30 03:21:18;;;;;;;22.58;15.00;;;-4.40;99.90;;;;;;4971524;28;20435;-81
2023/01/30 03:23:46;;;;;;;27.10;15.90;;;-4.50;99.90;;;;;;4954073;28;20233;-81
2023/01/30 03:26:21;;;;;;;24.70;15.73;;;-4.50;99.90;;;;;;4965203;28;20046;-81
2023/01/30 03:28:51;;;;;;;26.85;16.40;;;-4.50;99.90;;;;;;4954050;28;20042;-81
2023/01/30 03:31:19;;;;;;;29.67;18.20;;;-4.50;99.90;;;;;;4946341;29;20423;-81
2023/01/30 03:33:47;;;;;;;26.20;17.20;;;-4.50;99.90;;;;;;4969816;28;20062;-81
2023/01/30 03:36:15;;;;;;;27.95;15.52;;;-4.50;99.90;;;;;;4964973;28;20047;-81
2023/01/30 03:38:43;;;;;;;23.70;15.75;;;-4.50;99.90;;;;;;4970923;28;20058;-81
2023/01/30 03:41:11;;;;;;;23.98;15.63;;;-4.50;99.90;;;;;;4933949;29;20389;-81
2023/01/30 03:43:39;;;;;;;21.65;13.98;;;-4.40;99.90;;;;;;4953313;28;20046;-81
2023/01/30 03:46:07;;;;;;;38.90;14.77;;;-4.30;99.90;;;;;;4953745;28;20816;-81
2023/01/30 03:48:35;;;;;;;25.02;16.02;;;-4.30;99.90;;;;;;4938894;28;20046;-81
2023/01/30 03:51:03;;;;;;;29.67;15.77;;;-4.40;99.90;;;;;;4933618;29;20063;-81
2023/01/30 03:53:31;;;;;;;22.25;15.65;;;-4.40;99.90;;;;;;4969754;28;20055;-75
2023/01/30 03:55:58;;;;;;;32.97;18.25;;;-4.20;99.90;;;;;;4953666;28;20043;-75
2023/01/30 03:58:30;;;;;;;29.67;16.42;;;-4.10;99.90;;;;;;4923279;28;20069;-75
2023/01/30 04:01:01;;;;;;;24.27;15.18;;;-3.90;99.90;;;;;;4950295;28;20496;-75
2023/01/30 04:03:30;;;;;;;31.48;20.42;;;-3.70;99.90;;;;;;4953534;28;20057;-74
2023/01/30 04:05:59;;;;;;;26.23;16.77;;;-3.50;99.90;;;;;;4934828;28;20412;-75
2023/01/30 04:08:27;;;;;;;35.60;20.35;;;-3.40;99.90;;;;;;4953598;28;20050;-75
2023/01/30 04:10:55;;;;;;;32.60;18.30;;;-3.30;99.90;;;;;;4953985;28;20260;-75
2023/01/30 04:13:24;;;;;;;19.80;14.05;;;-3.30;99.90;;;;;;4936324;28;20047;-75
2023/01/30 04:15:51;;;;;;;25.80;16.23;;;-3.10;99.90;;;;;;4952142;28;20046;-75
2023/01/30 04:18:38;;;;;;;25.45;18.00;;;-3.00;99.90;;;;;;4935978;29;20051;-75
2023/01/30 04:21:19;;;;;;;27.90;19.42;;;-3.00;99.90;;;;;;4931382;28;20047;-75
2023/01/30 04:23:47;;;;;;;31.63;17.40;;;-2.90;99.90;;;;;;4953294;28;20065;-75
2023/01/30 04:26:15;;;;;;;34.90;19.77;;;-2.90;99.90;;;;;;4947130;28;20047;-75
2023/01/30 04:28:43;;;;;;;28.65;17.73;;;-2.90;99.90;;;;;;4952607;28;20069;-75
2023/01/30 04:31:12;;;;;;;32.70;19.15;;;-2.90;99.90;;;;;;4948403;28;20051;-74
2023/01/30 04:33:43;;;;;;;28.25;15.65;;;-2.90;99.90;;;;;;4953120;28;20375;-75
2023/01/30 04:36:14;;;;;;;27.63;16.10;;;-3.00;99.90;;;;;;4934312;29;20035;-75
2023/01/30 04:38:43;;;;;;;21.73;12.25;;;-3.00;99.90;;;;;;4951641;28;20086;-74
2023/01/30 04:41:10;;;;;;;27.50;16.92;;;-2.90;99.90;;;;;;4953198;28;20045;-75
2023/01/30 04:43:44;;;;;;;26.05;16.10;;;-2.90;99.90;;;;;;4932459;28;20430;-74
2023/01/30 04:46:14;;;;;;;28.50;16.00;;;-2.90;99.90;;;;;;4970660;28;20049;-75
2023/01/30 04:48:42;;;;;;;36.97;18.52;;;-2.90;99.90;;;;;;4931352;28;20066;-74
2023/01/30 04:51:11;;;;;;;25.27;16.05;;;-2.90;99.90;;;;;;4954046;28;20050;-75
2023/01/30 04:53:39;;;;;;;20.70;15.10;;;-2.90;99.90;;;;;;4926529;28;20043;-75
2023/01/30 04:56:07;;;;;;;30.58;14.20;;;-2.90;99.90;;;;;;4948525;28;20046;-74
2023/01/30 04:58:34;;;;;;;27.85;12.93;;;-2.90;99.90;;;;;;4970329;28;20042;-75
2023/01/30 05:01:34;;;;;;;21.67;12.82;;;-3.00;99.90;;;;;;4947109;28;20053;-74
2023/01/30 05:04:03;;;;;;;19.45;12.48;;;-3.10;99.90;;;;;;4935661;28;20408;-74
2023/01/30 05:06:35;;;;;;;21.45;15.45;;;-3.10;99.90;;;;;;4970322;28;20070;-75
2023/01/30 05:09:04;;;;;;;26.30;10.68;;;-3.20;99.90;;;;;;4951335;28;20058;-74
2023/01/30 05:11:32;;;;;;;23.08;14.85;;;-3.10;99.90;;;;;;4964065;28;20061;-74
2023/01/30 05:14:01;;;;;;;23.27;13.63;;;-3.10;99.90;;;;;;4970107;28;20050;-75
2023/01/30 05:16:29;;;;;;;20.20;13.50;;;-3.20;99.90;;;;;;4952180;28;20043;-74
2023/01/30 05:18:57;;;;;;;21.33;13.57;;;-3.20;99.90;;;;;;4969530;28;20053;-75
2023/01/30 05:21:27;;;;;;;21.77;12.70;;;-3.30;99.90;;;;;;4959983;28;20400;-75
2023/01/30 05:23:56;;;;;;;21.98;16.33;;;-3.30;99.90;;;;;;4933457;28;20081;-75
2023/01/30 05:26:25;;;;;;;17.15;12.55;;;-3.30;99.90;;;;;;4969830;28;20057;-75
2023/01/30 05:28:55;;;;;;;21.25;14.13;;;-3.30;99.90;;;;;;4929023;28;20288;-75
2023/01/30 05:31:23;;;;;;;20.25;12.65;;;-3.30;99.90;;;;;;4927590;29;20062;-75
2023/01/30 05:33:51;;;;;;;23.67;13.77;;;-3.20;99.90;;;;;;4961393;28;20040;-75
2023/01/30 05:36:21;;;;;;;25.27;14.70;;;-3.30;99.90;;;;;;4952508;28;20039;-75
2023/01/30 05:38:49;;;;;;;20.27;10.93;;;-3.40;99.90;;;;;;4946776;28;20050;-75
2023/01/30 05:41:17;;;;;;;15.80;12.90;;;-3.40;99.90;;;;;;4968813;28;20035;-75
2023/01/30 05:43:49;;;;;;;18.90;10.77;;;-3.40;99.90;;;;;;4961726;28;20051;-75
2023/01/30 05:46:17;;;;;;;15.18;12.10;;;-3.40;99.90;;;;;;4966857;28;20047;-75
2023/01/30 05:48:45;;;;;;;19.80;12.07;;;-3.40;99.90;;;;;;4962193;28;20498;-75
2023/01/30 05:51:24;;;;;;;18.23;11.80;;;-3.40;99.90;;;;;;4967004;28;20050;-75
2023/01/30 05:53:54;;;;;;;;;;;-3.30;99.90;;;;;;4951321;28;20058;-75
2023/01/30 05:56:22;;;;;;;15.38;10.68;;;-3.40;99.90;;;;;;4961806;28;19925;-75
2023/01/30 05:58:56;;;;;;;18.65;10.13;;;-3.40;99.90;;;;;;4963511;28;20050;-75
2023/01/30 06:01:25;;;;;;;22.42;13.77;;;-3.40;99.90;;;;;;4967269;28;20043;-75
2023/01/30 06:03:57;;;;;;;17.88;12.27;;;-3.40;99.90;;;;;;4968800;28;20423;-75
2023/01/30 06:06:25;;;;;;;17.30;11.15;;;-3.40;99.90;;;;;;4966013;28;20043;-75
2023/01/30 06:08:54;;;;;;;22.90;12.68;;;-3.40;99.90;;;;;;4965478;28;20057;-75
2023/01/30 06:11:24;;;;;;;20.98;11.55;;;-3.40;99.90;;;;;;4950422;28;20058;-75
2023/01/30 06:13:51;;;;;;;22.15;13.60;;;-3.50;99.90;;;;;;4962803;28;20039;-75
2023/01/30 06:16:19;;;;;;;20.17;10.50;;;-3.40;99.90;;;;;;4968252;28;20415;-76
2023/01/30 06:18:47;;;;;;;22.20;12.50;;;-3.30;99.90;;;;;;4968525;28;20054;-76
2023/01/30 06:21:19;;;;;;;21.75;12.38;;;-3.10;99.90;;;;;;4967663;28;20038;-76
2023/01/30 06:23:50;;;;;;;19.50;11.68;;;-3.00;99.90;;;;;;4946952;28;20093;-77
2023/01/30 06:26:18;;;;;;;21.10;14.20;;;-2.90;99.90;;;;;;4946300;29;20053;-75
2023/01/30 06:28:45;;;;;;;19.48;11.20;;;-3.00;99.90;;;;;;4965163;28;20426;-76
2023/01/30 06:31:13;;;;;;;18.30;13.38;;;-2.90;99.90;;;;;;4968189;28;20035;-76
2023/01/30 06:33:48;;;;;;;18.00;12.32;;;-2.70;99.90;;;;;;4947188;28;20043;-75
2023/01/30 06:36:15;;;;;;;18.92;12.77;;;-2.70;99.90;;;;;;4968182;28;20081;-75
2023/01/30 06:38:43;;;;;;;20.63;12.70;;;-2.70;99.90;;;;;;4965824;28;20062;-75
2023/01/30 06:41:11;;;;;;;19.40;12.52;;;-2.70;99.90;;;;;;4949949;28;20043;-75
2023/01/30 06:43:41;;;;;;;16.55;10.20;;;-2.70;99.90;;;;;;4948540;28;20393;-75
2023/01/30 06:46:08;;;;;;;21.25;11.45;;;-2.70;99.90;;;;;;4972875;28;20054;-75
2023/01/30 06:48:36;;;;;;;24.10;14.77;;;-2.70;99.90;;;;;;4972559;28;20383;-75
2023/01/30 06:51:04;;;;;;;15.40;9.93;;;-2.80;99.90;;;;;;4974243;28;20051;-75
2023/01/30 06:53:32;;;;;;;22.80;12.82;;;-2.70;99.90;;;;;;4959838;28;20058;-75
2023/01/30 06:56:00;;;;;;;15.32;10.80;;;-2.80;99.90;;;;;;4960268;28;20051;-75
2023/01/30 06:58:28;;;;;;;16.00;10.60;;;-2.80;99.90;;;;;;4944946;28;20047;-75
2023/01/30 07:00:56;;;;;;;15.13;11.68;;;-2.80;99.90;;;;;;4976981;28;20046;-74
2023/01/30 07:03:24;;;;;;;16.67;11.88;;;-2.80;99.90;;;;;;4976806;28;20051;-75
2023/01/30 07:05:51;;;;;;;12.15;8.82;;;-2.70;99.90;;;;;;4976933;28;20058;-75
2023/01/30 07:08:19;;;;;;;23.73;11.98;;;-2.70;99.90;;;;;;4977163;28;20042;-74
2023/01/30 07:10:48;;;;;;;28.48;14.18;;;-2.70;99.90;;;;;;4977660;28;20054;-75
2023/01/30 07:13:16;;;;;;;20.15;12.90;;;-2.60;99.90;;;;;;4943810;28;20082;-75
2023/01/30 07:15:45;;;;;;;18.60;12.30;;;-2.60;99.90;;;;;;4960434;28;20051;-74
2023/01/30 07:18:12;;;;;;;19.35;12.13;;;-2.60;99.90;;;;;;4977126;28;20042;-75
2023/01/30 07:20:41;;;;;;;16.88;9.77;;;-2.60;99.90;;;;;;4971527;28;20047;-75
2023/01/30 07:28:11;;;;;;;12.80;9.18;;;-2.40;99.90;;;;;;4950227;28;20042;-75
2023/01/30 07:30:39;;;;;;;21.23;13.38;;;-2.40;99.90;;;;;;4978350;28;20050;-75
2023/01/30 07:33:06;;;;;;;15.20;11.18;;;-2.30;99.90;;;;;;4964704;28;20835;-75
2023/01/30 07:35:35;;;;;;;15.25;12.50;;;-2.30;99.90;;;;;;4996378;28;20031;-75
2023/01/30 07:38:04;;;;;;;19.25;13.77;;;-2.40;99.90;;;;;;4992971;28;20034;-75
2023/01/30 07:40:31;;;;;;;16.48;11.73;;;-2.30;99.90;;;;;;4993757;28;20039;-75
2023/01/30 07:43:00;;;;;;;17.27;12.23;;;-2.20;99.90;;;;;;4994260;28;20041;-75
2023/01/30 07:45:45;;;;;;;15.70;10.77;;;-2.10;99.90;;;;;;4998584;28;20038;-75
2023/01/30 07:48:15;;;;;;;17.65;11.82;;;-2.00;99.90;;;;;;4956420;28;20039;-75
2023/01/30 07:50:44;;;;;;;15.95;10.43;;;-2.00;99.90;;;;;;4964127;28;20030;-75
2023/01/30 07:53:15;;;;;;;18.67;12.30;;;-1.90;99.90;;;;;;4987056;28;20045;-75
2023/01/30 07:55:43;;;;;;;17.33;11.63;;;-1.70;99.90;;;;;;4991915;28;20042;-75
2023/01/30 07:58:13;;;;;;;16.58;11.85;;;-1.70;99.90;;;;;;4982625;28;20126;-74
2023/01/30 08:00:42;;;;;;;15.43;10.93;;;-1.60;99.90;;;;;;4972993;28;20058;-75
2023/01/30 08:03:12;;;;;;;19.40;13.55;;;-1.60;99.90;;;;;;4991173;28;20035;-75
2023/01/30 08:05:40;;;;;;;16.58;12.55;;;-1.50;99.90;;;;;;4990671;28;20062;-76
2023/01/30 08:08:08;;;;;;;17.63;10.95;;;-1.50;99.90;;;;;;4953115;28;20054;-75
2023/01/30 08:10:36;;;;;;;15.05;9.70;;;-1.50;99.90;;;;;;4953525;28;20503;-75
2023/01/30 08:13:03;;;;;;;19.08;12.60;;;-1.50;99.90;;;;;;4970253;28;20407;-75
2023/01/30 08:15:32;;;;;;;12.65;11.25;;;-1.40;99.90;;;;;;4965201;28;20411;-75
2023/01/30 08:18:00;;;;;;;13.35;9.80;;;-1.40;99.90;;;;;;4969853;28;20086;-74
2023/01/30 08:20:28;;;;;;;13.93;11.13;;;-1.30;99.90;;;;;;4952811;28;20043;-75
2023/01/30 08:22:58;;;;;;;15.77;9.50;;;-1.20;99.90;;;;;;4964135;28;20440;-74
2023/01/30 08:25:25;;;;;;;15.15;12.18;;;-1.20;99.90;;;;;;4970671;28;20038;-75
2023/01/30 08:27:53;;;;;;;12.80;9.57;;;-1.20;99.90;;;;;;4969571;28;20148;-75
2023/01/30 08:30:21;;;;;;;16.83;10.48;;;-1.10;99.90;;;;;;4965934;28;20059;-75
2023/01/30 08:32:49;;;;;;;15.13;10.18;;;-1.10;99.90;;;;;;4963242;28;20368;-74
2023/01/30 08:35:17;;;;;;;18.58;12.32;;;-1.10;99.90;;;;;;4964732;28;20055;-74
2023/01/30 08:37:45;;;;;;;13.55;9.10;;;-1.00;99.90;;;;;;4962642;28;20055;-75
2023/01/30 08:40:13;;;;;;;11.07;7.88;;;-1.00;99.90;;;;;;4962495;28;20397;-74
2023/01/30 08:42:45;;;;;;;13.35;8.95;;;-1.00;99.90;;;;;;4964073;28;20388;-74
2023/01/30 08:45:12;;;;;;;10.73;8.65;;;-1.00;99.90;;;;;;4963402;28;20058;-75
2023/01/30 08:47:40;;;;;;;13.32;8.82;;;-0.80;99.90;;;;;;4967379;28;20063;-74
2023/01/30 08:50:08;;;;;;;17.60;12.20;;;-0.80;99.90;;;;;;4966412;28;20059;-75
2023/01/30 08:52:36;;;;;;;17.63;9.93;;;-0.70;99.90;;;;;;4970245;28;20050;-75
2023/01/30 08:55:04;;;;;;;13.75;8.63;;;-0.70;99.90;;;;;;4946055;28;20057;-74
2023/01/30 08:57:32;;;;;;;11.77;7.20;;;-0.70;99.90;;;;;;4968389;28;20490;-74
2023/01/30 09:00:00;;;;;;;11.43;8.30;;;-0.70;99.90;;;;;;4964081;28;20058;-74
2023/01/30 09:02:27;;;;;;;15.48;10.85;;;-0.60;99.90;;;;;;4947440;28;20410;-74
2023/01/30 09:04:55;;;;;;;12.02;8.77;;;-0.60;99.90;;;;;;4953004;28;20046;-75
2023/01/30 09:07:23;;;;;;;14.50;8.80;;;-0.50;99.90;;;;;;4951260;28;20056;-74
2023/01/30 09:09:50;;;;;;;12.65;9.07;;;-0.50;99.90;;;;;;4964863;28;20042;-74
2023/01/30 09:12:18;;;;;;;14.35;8.50;;;-0.50;99.90;;;;;;4952569;28;20043;-75
2023/01/30 09:14:46;;;;;;;12.02;7.68;;;-0.50;99.90;;;;;;4964537;28;20054;-74
2023/01/30 09:17:14;;;;;;;15.38;9.73;;;-0.40;99.90;;;;;;4952474;28;20051;-75
2023/01/30 09:19:41;;;;;;;11.48;7.18;;;-0.40;99.90;;;;;;4970402;28;20070;-74
2023/01/30 09:22:16;;;;;;;11.60;7.95;;;-0.40;99.90;;;;;;4945594;28;20049;-74
2023/01/30 09:24:43;;;;;;;12.85;8.60;;;-0.30;99.90;;;;;;4965783;28;20058;-74
2023/01/30 09:27:11;;;;;;;12.98;8.90;;;-0.30;99.90;;;;;;4970931;28;20047;-75
2023/01/30 09:29:39;;;;;;;14.60;8.20;;;-0.40;99.90;;;;;;4969204;28;20035;-75
2023/01/30 09:32:06;;;;;;;12.77;6.97;;;-0.40;99.90;;;;;;4963387;28;20047;-74
2023/01/30 09:34:34;;;;;;;12.43;7.30;;;-0.30;99.90;;;;;;4970305;28;20058;-74
2023/01/30 09:37:02;;;;;;;11.13;7.40;;;-0.20;99.90;;;;;;4966374;28;20043;-74
2023/01/30 09:39:31;;;;;;;11.68;8.55;;;-0.10;99.90;;;;;;4966814;28;20057;-74
2023/01/30 09:42:05;;;;;;;11.43;7.72;;;0.10;99.90;;;;;;4951306;28;20051;-74
2023/01/30 09:44:39;;;;;;;10.77;8.43;;;0.70;99.90;;;;;;4969416;28;20055;-74
2023/01/30 09:47:09;;;;;;;12.13;8.25;;;1.40;99.90;;;;;;4953569;28;20084;-75
2023/01/30 09:49:43;;;;;;;8.73;7.10;;;1.60;99.90;;;;;;4961189;28;20058;-74
2023/01/30 09:52:29;;;;;;;9.95;7.03;;;1.60;99.90;;;;;;4952122;28;20047;-75
2023/01/30 09:55:17;;;;;;;12.90;8.20;;;2.00;99.90;;;;;;4935004;28;20050;-74
2023/01/30 09:57:47;;;;;;;11.45;7.90;;;1.90;99.90;;;;;;4964190;28;20046;-75
2023/01/30 10:00:36;;;;;;;10.10;7.20;;;1.40;99.90;;;;;;4962349;28;20057;-75
2023/01/30 10:03:43;;;;;;;9.25;6.72;;;1.40;99.90;;;;;;4963256;28;20419;-74
2023/01/30 10:06:13;;;;;;;11.50;7.18;;;1.50;99.90;;;;;;4889509;29;20052;-74
2023/01/30 10:09:09;;;;;;;13.05;8.05;;;1.60;99.90;;;;;;4945029;28;20047;-75
2023/01/30 10:12:09;;;;;;;9.85;7.65;;;1.40;99.90;;;;;;4969136;28;20062;-75
2023/01/30 10:15:13;;;;;;;10.73;7.05;;;1.40;99.90;;;;;;4918148;28;20051;-74
2023/01/30 10:17:50;;;;;;;11.40;7.30;;;1.30;99.90;;;;;;4966636;28;20059;-74
2023/01/30 10:20:45;;;;;;;11.15;7.43;;;1.20;99.90;;;;;;4960739;28;20058;-74
2023/01/30 10:23:57;;;;;;;10.88;8.43;;;1.20;99.90;;;;;;4965428;28;20066;-74
2023/01/30 10:26:28;;;;;;;12.68;7.88;;;1.20;99.90;;;;;;4931992;28;20066;-74
2023/01/30 10:29:05;;;;;;;13.75;9.82;;;1.20;99.90;;;;;;4962820;28;20427;-75
2023/01/30 10:32:14;;;;;;;15.05;7.93;;;1.20;99.90;;;;;;4947599;28;20055;-75
2023/01/30 10:34:47;;;;;;;14.93;7.10;;;1.20;99.90;;;;;;4894593;28;20470;-75
2023/01/30 10:37:31;;;;;;;13.43;7.75;;;1.30;99.90;;;;;;4962982;28;20248;-75
2023/01/30 10:40:12;;;;;;;11.10;7.18;;;1.40;99.90;;;;;;4946659;28;20065;-75
2023/01/30 10:43:12;;;;;;;12.10;8.95;;;1.40;99.90;;;;;;4941908;28;20059;-75
2023/01/30 10:46:13;;;;;;;13.88;8.93;;;1.50;99.90;;;;;;4965513;28;20047;-75
2023/01/30 10:49:05;;;;;;;9.82;6.65;;;1.50;99.90;;;;;;4963585;28;20235;-75
2023/01/30 10:51:52;;;;;;;10.10;7.18;;;1.60;99.90;;;;;;4962824;28;20403;-75
2023/01/30 10:54:48;;;;;;;9.70;7.10;;;1.70;99.90;;;;;;4945934;28;20059;-74
2023/01/30 10:57:38;;;;;;;13.20;8.02;;;1.70;99.90;;;;;;4942468;28;20055;-75
2023/01/30 11:00:21;;;;;;;15.02;8.93;;;1.80;99.90;;;;;;4944412;28;20070;-75
2023/01/30 11:03:04;;;;;;;11.60;7.32;;;2.00;99.90;;;;;;4934994;28;20059;-75
2023/01/30 11:05:58;;;;;;;14.75;8.98;;;2.10;99.90;;;;;;4945015;28;20058;-75
2023/01/30 11:08:30;;;;;;;7.15;4.88;;;2.30;99.90;;;;;;4945257;28;20039;-75
2023/01/30 11:10:58;;;;;;;12.05;7.15;;;2.40;99.90;;;;;;4943109;28;20484;-75
2023/01/30 11:13:30;;;;;;;10.88;5.95;;;2.30;99.90;;;;;;4936470;28;20178;-75
2023/01/30 11:16:04;;;;;;;16.40;7.47;;;2.40;99.90;;;;;;4937124;28;20399;-75
2023/01/30 11:18:42;;;;;;;11.90;7.53;;;2.60;99.90;;;;;;4944700;28;20055;-75
2023/01/30 11:21:31;;;;;;;9.43;7.63;;;2.70;99.90;;;;;;4938630;28;20047;-75
2023/01/30 11:24:17;;;;;;;10.38;4.80;;;2.90;99.90;;;;;;4947778;28;20055;-75
2023/01/30 11:26:45;;;;;;;7.45;5.60;;;3.00;99.90;;;;;;4947444;28;20066;-75
2023/01/30 11:29:14;;;;;;;3.83;3.47;;;3.10;99.90;;;;;;4937767;28;20512;-76
2023/01/30 11:31:49;;;;;;;5.82;4.13;;;3.20;99.90;;;;;;4949280;28;20054;-76
2023/01/30 11:34:19;;;;;;;4.75;4.03;;;3.20;99.90;;;;;;4941497;28;20051;-75
2023/01/30 11:36:47;;;;;;;5.43;3.63;;;3.30;99.90;;;;;;4941351;28;20050;-75
2023/01/30 11:39:16;;;;;;;5.35;4.57;;;3.20;99.90;;;;;;4947224;29;20055;-76
2023/01/30 11:41:54;;;;;;;8.20;4.72;;;3.10;99.90;;;;;;4938134;28;20047;-75
2023/01/30 11:44:27;;;;;;;5.85;3.38;;;3.10;99.90;;;;;;4948299;28;20054;-75
2023/01/30 11:46:59;;;;;;;4.72;3.75;;;3.20;99.90;;;;;;4943602;28;20056;-75
2023/01/30 11:49:33;;;;;;;8.40;4.97;;;3.40;99.90;;;;;;4947261;28;20058;-76
2023/01/30 11:52:27;;;;;;;7.00;3.85;;;3.40;99.90;;;;;;4948161;28;20047;-75
2023/01/30 11:55:00;;;;;;;8.82;4.18;;;3.30;99.90;;;;;;4927036;28;20376;-75
2023/01/30 11:57:27;;;;;;;7.68;4.72;;;3.30;99.90;;;;;;4947689;28;20444;-75
2023/01/30 12:00:00;;;;;;;5.53;4.10;;;3.30;99.90;;;;;;4945525;28;20054;-76
2023/01/30 12:02:37;;;;;;;6.10;4.53;;;3.40;99.90;;;;;;4957437;29;20050;-76
2023/01/30 12:05:20;;;;;;;5.47;3.38;;;3.50;99.90;;;;;;4942569;29;20048;-76
2023/01/30 12:07:51;;;;;;;5.55;4.95;;;3.50;99.90;;;;;;4943259;29;20043;-76
2023/01/30 12:10:27;;;;;;;6.63;4.82;;;3.30;99.90;;;;;;4949007;28;20062;-76
2023/01/30 12:13:01;;;;;;;4.75;3.92;;;3.20;99.90;;;;;;4929948;29;20044;-76
2023/01/30 12:15:34;;;;;;;7.40;4.30;;;3.10;99.90;;;;;;4956140;29;20047;-76
2023/01/30 12:18:23;;;;;;;4.10;3.53;;;3.00;99.90;;;;;;4950022;28;20051;-76
2023/01/30 12:25:00;;;;;;;4.10;3.40;;;2.90;99.90;;;;;;4974518;28;20409;-75
2023/01/30 12:27:58;;;;;;;7.53;3.90;;;2.80;99.90;;;;;;4973353;28;20047;-77
2023/01/30 12:30:38;;;;;;;6.93;5.50;;;2.70;99.90;;;;;;4951926;28;20452;-76
2023/01/30 12:33:14;;;;;;;4.57;3.53;;;2.70;99.90;;;;;;4947994;29;20047;-76
2023/01/30 12:35:51;;;;;;;7.35;4.97;;;2.70;99.90;;;;;;4927870;29;20443;-77
2023/01/30 12:38:38;;;;;;;6.45;3.83;;;2.60;99.90;;;;;;4953554;28;20043;-75
2023/01/30 12:41:23;;;;;;;11.38;4.13;;;2.50;99.90;;;;;;4959615;28;20048;-76
2023/01/30 12:44:24;;;;;;;4.80;3.17;;;2.50;99.90;;;;;;4975489;28;20034;-77
2023/01/30 12:46:56;;;;;;;4.25;3.22;;;2.50;99.90;;;;;;4964031;28;20035;-76
2023/01/30 12:49:27;;;;;;;4.07;3.60;;;2.50;99.90;;;;;;4974981;28;20055;-76
2023/01/30 12:52:07;;;;;;;5.05;4.25;;;2.50;99.90;;;;;;4967937;28;20039;-77
2023/01/30 12:54:46;;;;;;;6.07;4.68;;;2.50;99.90;;;;;;4973713;28;20053;-76
2023/01/30 12:57:14;;;;;;;4.38;3.72;;;2.50;99.90;;;;;;4961535;28;20042;-76
2023/01/30 12:59:48;;;;;;;5.28;4.38;;;2.60;99.90;;;;;;4969412;28;20035;-76
2023/01/30 13:02:36;;;;;;;7.22;4.47;;;2.50;99.90;;;;;;4968893;28;20233;-75
2023/01/30 13:05:25;;;;;;;7.47;4.55;;;2.60;99.90;;;;;;4975499;28;20053;-76
2023/01/30 13:08:20;;;;;;;5.45;4.78;;;2.60;99.90;;;;;;4976440;28;20042;-78
2023/01/30 13:10:56;;;;;;;3.72;3.13;;;2.50;99.90;;;;;;4975615;28;20053;-76
2023/01/30 13:13:30;;;;;;;6.20;4.72;;;2.50;99.90;;;;;;4968694;28;20031;-76
2023/01/30 13:16:28;;;;;;;10.95;4.70;;;2.50;99.90;;;;;;4974605;28;20047;-76
2023/01/30 13:19:15;;;;;;;4.30;3.30;;;2.50;99.90;;;;;;4966744;28;20051;-75
2023/01/30 13:21:54;;;;;;;5.82;4.45;;;2.40;99.90;;;;;;4954579;28;20066;-76
2023/01/30 13:24:29;;;;;;;6.68;4.93;;;2.40;99.90;;;;;;4931677;28;20058;-76
2023/01/30 13:27:02;;;;;;;5.13;3.80;;;2.40;99.90;;;;;;4947424;28;20520;-76
2023/01/30 13:29:31;;;;;;;4.57;3.53;;;2.40;99.90;;;;;;4946051;28;20416;-76